Time;durP1;ratioP1;P1;durP2;ratioP2;P2;SDS_P1;SDS_P2;PMS_P1;PMS_P2;Temp;Humidity;BMP_temperature;BMP_pressure;BME280_temperature;BME280_humidity;BME280_pressure;Samples;Min_cycle;Max_cycle;Signal;HPM_P1;HPM_P2
2022/07/27 00:00:34;;;;;;;20.23;16.58;;;19.70;99.90;;;;;;5055598;28;20048;-56
2022/07/27 00:03:00;;;;;;;21.23;14.65;;;19.60;99.90;;;;;;5055062;28;20578;-56
2022/07/27 00:05:26;;;;;;;22.13;14.82;;;19.50;99.90;;;;;;5055643;28;20490;-56
2022/07/27 00:07:52;;;;;;;21.05;15.27;;;19.60;99.90;;;;;;5055413;28;20033;-56
2022/07/27 00:10:18;;;;;;;22.20;16.20;;;19.60;99.90;;;;;;5055434;28;20025;-56
2022/07/27 00:12:44;;;;;;;23.88;15.77;;;19.60;99.90;;;;;;5055042;28;20497;-56
2022/07/27 00:15:10;;;;;;;20.88;15.02;;;19.60;99.90;;;;;;5055344;28;20033;-56
2022/07/27 00:17:36;;;;;;;22.13;16.38;;;19.60;99.90;;;;;;5055383;28;20032;-56
2022/07/27 00:20:02;;;;;;;18.77;15.18;;;19.70;99.90;;;;;;5055434;28;20437;-56
2022/07/27 00:22:28;;;;;;;19.67;16.13;;;19.60;99.90;;;;;;5055086;28;20064;-56
2022/07/27 00:24:54;;;;;;;22.42;15.93;;;19.60;99.90;;;;;;5055094;28;20035;-56
2022/07/27 00:27:20;;;;;;;23.05;15.95;;;19.60;99.90;;;;;;5055043;28;20086;-56
2022/07/27 00:29:46;;;;;;;25.88;16.35;;;19.60;99.90;;;;;;5036850;28;20123;-56
2022/07/27 00:32:11;;;;;;;25.52;15.75;;;19.70;99.90;;;;;;5054835;28;20041;-56
2022/07/27 00:34:37;;;;;;;19.13;14.10;;;19.70;99.90;;;;;;5054948;28;20036;-56
2022/07/27 00:37:04;;;;;;;16.38;12.80;;;19.60;99.90;;;;;;5055032;28;20025;-56
2022/07/27 00:39:30;;;;;;;17.95;14.32;;;19.60;99.90;;;;;;5053888;28;20025;-56
2022/07/27 00:41:57;;;;;;;17.73;11.85;;;19.60;99.90;;;;;;5054749;28;20025;-56
2022/07/27 00:44:27;;;;;;;18.00;12.90;;;19.60;99.90;;;;;;5054822;28;20025;-56
2022/07/27 00:46:54;;;;;;;17.38;13.88;;;19.50;99.90;;;;;;5054719;28;20036;-56
2022/07/27 00:49:21;;;;;;;16.60;11.80;;;19.60;99.90;;;;;;5053460;28;20037;-56
2022/07/27 00:51:48;;;;;;;18.10;12.27;;;19.50;99.90;;;;;;5054783;28;20115;-56
2022/07/27 00:54:15;;;;;;;15.63;11.95;;;19.50;99.90;;;;;;5054416;28;20039;-56
2022/07/27 00:56:41;;;;;;;17.90;11.52;;;19.50;99.90;;;;;;5054690;28;20024;-56
2022/07/27 00:59:09;;;;;;;13.32;10.68;;;19.60;99.90;;;;;;5054564;28;20032;-56
2022/07/27 01:01:35;;;;;;;16.77;12.85;;;19.60;99.90;;;;;;5054475;28;20059;-56
2022/07/27 01:04:01;;;;;;;20.02;13.65;;;19.60;99.90;;;;;;5054272;28;20133;-56
2022/07/27 01:06:27;;;;;;;14.77;12.05;;;19.60;99.90;;;;;;5054444;28;20060;-56
2022/07/27 01:09:55;;;;;;;16.55;12.10;;;19.60;99.90;;;;;;5054241;28;20044;-56
2022/07/27 01:11:46;;;;;;;16.73;12.00;;;19.60;99.90;;;;;;5054407;28;20112;-56
2022/07/27 01:14:14;;;;;;;16.90;12.35;;;19.60;99.90;;;;;;5054389;28;20067;-56
2022/07/27 01:16:41;;;;;;;18.88;14.05;;;19.60;99.90;;;;;;5054493;28;20475;-56
2022/07/27 01:19:11;;;;;;;17.80;13.07;;;19.60;99.90;;;;;;5054329;28;20363;-56
2022/07/27 01:21:37;;;;;;;20.75;12.85;;;19.60;99.90;;;;;;5054370;28;20033;-56
2022/07/27 01:24:03;;;;;;;20.40;13.80;;;19.60;99.90;;;;;;5054309;28;20048;-56
2022/07/27 01:26:29;;;;;;;16.75;12.90;;;19.60;99.90;;;;;;5054286;28;20056;-56
2022/07/27 01:28:59;;;;;;;17.02;12.68;;;19.70;99.90;;;;;;5054015;28;20439;-56
2022/07/27 01:31:26;;;;;;;16.27;12.68;;;19.90;99.90;;;;;;5036408;28;20025;-56
2022/07/27 01:33:52;;;;;;;16.33;12.23;;;19.90;99.90;;;;;;5054396;28;20057;-56
2022/07/27 01:36:19;;;;;;;15.88;10.98;;;19.90;99.90;;;;;;5054386;28;20036;-56
2022/07/27 01:38:45;;;;;;;16.13;10.82;;;19.80;99.90;;;;;;5053969;28;20497;-56
2022/07/27 01:41:12;;;;;;;13.88;11.43;;;19.80;99.90;;;;;;5054078;28;20029;-56
2022/07/27 01:43:38;;;;;;;21.45;12.70;;;19.70;99.90;;;;;;5054071;28;20029;-56
2022/07/27 01:46:05;;;;;;;17.17;12.05;;;19.80;99.90;;;;;;5054305;28;20021;-56
2022/07/27 01:48:31;;;;;;;20.38;12.48;;;19.80;99.90;;;;;;5053992;28;20123;-56
2022/07/27 01:50:56;;;;;;;15.85;11.82;;;19.80;99.90;;;;;;5056275;28;20075;-56
2022/07/27 01:53:23;;;;;;;15.27;11.55;;;19.80;99.90;;;;;;5057908;28;20021;-56
2022/07/27 01:55:50;;;;;;;18.20;12.85;;;19.80;99.90;;;;;;5058123;28;20029;-56
2022/07/27 01:58:17;;;;;;;16.75;12.35;;;19.80;99.90;;;;;;5057855;28;20021;-56
2022/07/27 02:00:43;;;;;;;17.27;13.05;;;19.80;99.90;;;;;;5057729;28;20557;-56
2022/07/27 02:03:10;;;;;;;22.77;13.27;;;19.80;99.90;;;;;;5057742;28;20052;-56
2022/07/27 02:05:38;;;;;;;21.73;14.32;;;19.80;99.90;;;;;;5057681;28;20025;-56
2022/07/27 02:08:05;;;;;;;18.33;13.88;;;19.80;99.90;;;;;;5057786;28;20070;-56
2022/07/27 02:10:31;;;;;;;20.90;15.27;;;19.80;99.90;;;;;;5057654;28;20098;-56
2022/07/27 02:12:57;;;;;;;33.80;17.23;;;19.90;99.90;;;;;;5057535;28;20494;-56
2022/07/27 02:15:26;;;;;;;24.25;15.82;;;19.90;99.90;;;;;;5057603;28;20028;-56
2022/07/27 02:17:53;;;;;;;22.90;16.83;;;19.90;99.90;;;;;;5057573;28;20056;-56
2022/07/27 02:20:21;;;;;;;19.75;13.73;;;19.80;99.90;;;;;;5057570;28;20053;-56
2022/07/27 02:22:47;;;;;;;22.65;15.63;;;19.90;99.90;;;;;;5057446;28;20029;-56
2022/07/27 02:25:16;;;;;;;27.20;16.50;;;19.80;99.90;;;;;;5057390;28;20055;-56
2022/07/27 02:27:42;;;;;;;23.13;16.42;;;19.80;99.90;;;;;;5057165;28;20529;-56
2022/07/27 02:30:09;;;;;;;25.67;16.52;;;19.70;99.90;;;;;;5057019;28;20033;-56
2022/07/27 02:32:35;;;;;;;21.40;15.20;;;19.70;99.90;;;;;;5057406;28;20070;-56
2022/07/27 02:35:01;;;;;;;22.25;15.60;;;19.80;99.90;;;;;;5057163;28;20037;-56
2022/07/27 02:37:27;;;;;;;22.90;15.75;;;19.70;99.90;;;;;;5057168;28;20033;-56
2022/07/27 02:39:53;;;;;;;22.17;15.63;;;19.60;99.90;;;;;;5057061;28;20033;-56
2022/07/27 02:42:19;;;;;;;27.23;15.70;;;19.50;99.90;;;;;;5057107;28;20035;-56
2022/07/27 02:44:45;;;;;;;22.08;15.27;;;19.50;99.90;;;;;;5057157;28;20064;-56
2022/07/27 02:47:11;;;;;;;25.88;15.73;;;19.40;99.90;;;;;;5056994;28;20098;-56
2022/07/27 02:49:37;;;;;;;25.88;16.13;;;19.50;99.90;;;;;;5057121;28;20539;-56
2022/07/27 02:52:05;;;;;;;29.67;17.33;;;19.50;99.90;;;;;;5056753;28;20371;-56
2022/07/27 02:54:31;;;;;;;27.38;16.90;;;19.40;99.90;;;;;;5056708;28;20463;-56
2022/07/27 02:56:59;;;;;;;26.65;16.30;;;19.40;99.90;;;;;;5056713;28;20037;-56
2022/07/27 02:59:25;;;;;;;28.80;17.60;;;19.30;99.90;;;;;;5056713;28;20463;-56
2022/07/27 03:01:51;;;;;;;32.17;18.70;;;19.30;99.90;;;;;;5055747;28;20029;-56
2022/07/27 03:04:18;;;;;;;29.13;15.95;;;19.30;99.90;;;;;;5056579;28;20052;-56
2022/07/27 03:06:44;;;;;;;25.35;16.75;;;19.30;99.90;;;;;;5056519;28;20033;-56
2022/07/27 03:09:10;;;;;;;30.10;18.23;;;19.30;99.90;;;;;;5056664;28;20064;-56
2022/07/27 03:11:36;;;;;;;33.13;18.35;;;19.20;99.90;;;;;;5056818;28;20021;-56
2022/07/27 03:14:02;;;;;;;31.02;19.65;;;19.20;99.90;;;;;;5056750;28;20355;-56
2022/07/27 03:16:29;;;;;;;36.35;19.33;;;19.20;99.90;;;;;;5056350;28;20036;-56
2022/07/27 03:18:56;;;;;;;30.58;17.50;;;19.20;99.90;;;;;;5056202;28;20025;-56
2022/07/27 03:21:23;;;;;;;29.20;17.80;;;19.30;99.90;;;;;;5056356;28;20036;-56
2022/07/27 03:23:48;;;;;;;30.30;17.88;;;19.30;99.90;;;;;;5056413;28;20029;-56
2022/07/27 03:26:16;;;;;;;30.60;18.52;;;19.30;99.90;;;;;;5056230;28;20489;-56
2022/07/27 03:28:42;;;;;;;29.65;17.48;;;19.30;99.90;;;;;;5056185;28;20475;-56
2022/07/27 03:31:08;;;;;;;32.38;18.15;;;19.20;99.90;;;;;;5055927;28;20108;-56
2022/07/27 03:33:35;;;;;;;35.75;17.63;;;19.20;99.90;;;;;;5056022;28;20036;-56
2022/07/27 03:36:01;;;;;;;35.67;17.45;;;19.20;99.90;;;;;;5056154;28;20040;-56
2022/07/27 03:38:28;;;;;;;36.03;18.30;;;19.20;99.90;;;;;;5055914;28;20021;-56
2022/07/27 03:40:53;;;;;;;32.92;17.75;;;19.20;99.90;;;;;;5055950;28;20049;-56
2022/07/27 03:43:19;;;;;;;29.15;17.23;;;19.20;99.90;;;;;;5056068;28;20036;-56
2022/07/27 03:45:45;;;;;;;30.60;17.70;;;19.20;99.90;;;;;;5056139;28;20261;-56
2022/07/27 03:48:11;;;;;;;27.77;16.58;;;19.20;99.90;;;;;;5055760;28;20068;-56
2022/07/27 03:50:37;;;;;;;28.88;18.10;;;19.20;99.90;;;;;;5055846;28;20063;-56
2022/07/27 03:53:03;;;;;;;30.38;18.92;;;19.30;99.90;;;;;;5055641;28;20379;-56
2022/07/27 03:55:29;;;;;;;31.05;18.33;;;19.40;99.90;;;;;;5055695;28;20021;-56
2022/07/27 03:57:56;;;;;;;41.85;19.42;;;19.40;99.90;;;;;;5055655;28;20025;-56
2022/07/27 04:00:22;;;;;;;39.13;19.35;;;19.50;99.90;;;;;;5055747;28;20037;-56
2022/07/27 04:02:48;;;;;;;39.95;20.00;;;19.60;99.90;;;;;;5055295;28;20101;-57
2022/07/27 04:05:14;;;;;;;45.83;18.27;;;19.60;99.90;;;;;;5055472;28;20036;-56
2022/07/27 04:07:40;;;;;;;47.55;19.52;;;19.70;99.90;;;;;;5055289;28;20029;-56
2022/07/27 04:10:07;;;;;;;41.63;19.08;;;19.70;99.90;;;;;;5055419;28;20103;-56
2022/07/27 04:12:36;;;;;;;42.80;20.50;;;19.80;99.90;;;;;;5055207;28;20028;-56
2022/07/27 04:15:03;;;;;;;37.38;19.02;;;19.80;99.90;;;;;;5055244;28;20041;-56
2022/07/27 04:17:29;;;;;;;38.03;19.30;;;19.80;99.90;;;;;;5055247;28;20021;-56
2022/07/27 04:19:55;;;;;;;34.15;18.83;;;19.90;99.90;;;;;;5055112;28;20078;-56
2022/07/27 04:22:21;;;;;;;35.38;18.25;;;19.90;99.90;;;;;;5055162;28;20463;-56
2022/07/27 04:24:47;;;;;;;40.67;18.95;;;20.00;99.90;;;;;;5055536;28;20089;-56
2022/07/27 04:27:13;;;;;;;42.13;19.33;;;20.00;99.90;;;;;;5055017;28;20025;-56
2022/07/27 04:29:39;;;;;;;43.92;20.30;;;20.10;99.90;;;;;;5054675;28;20017;-56
2022/07/27 04:32:05;;;;;;;44.95;20.40;;;20.20;99.90;;;;;;5055023;28;20159;-56
2022/07/27 04:34:31;;;;;;;38.00;16.80;;;20.20;99.90;;;;;;5053687;28;20113;-56
2022/07/27 04:36:57;;;;;;;35.95;17.85;;;20.40;99.90;;;;;;5054801;28;20056;-56
2022/07/27 04:39:23;;;;;;;31.10;17.65;;;20.40;99.90;;;;;;5054671;28;20028;-56
2022/07/27 04:41:48;;;;;;;37.10;17.88;;;20.40;99.90;;;;;;5054889;28;20073;-56
2022/07/27 04:44:14;;;;;;;36.10;17.73;;;20.60;99.90;;;;;;5054708;28;20029;-56
2022/07/27 04:46:40;;;;;;;37.22;16.67;;;20.60;99.90;;;;;;5054743;28;20036;-56
2022/07/27 04:49:06;;;;;;;40.45;18.65;;;20.70;99.90;;;;;;5054590;28;20119;-57
2022/07/27 04:51:32;;;;;;;40.97;18.92;;;20.80;99.90;;;;;;5054598;28;20036;-56
2022/07/27 04:53:58;;;;;;;72.28;29.02;;;20.80;99.90;;;;;;5054406;28;20028;-56
2022/07/27 04:56:24;;;;;;;69.20;30.33;;;20.90;99.90;;;;;;5054550;28;20028;-57
2022/07/27 04:58:50;;;;;;;63.33;30.05;;;21.00;99.90;;;;;;5054467;28;20024;-56
2022/07/27 05:01:16;;;;;;;54.38;26.20;;;21.00;99.90;;;;;;5054792;28;20484;-56
2022/07/27 05:03:42;;;;;;;48.83;25.85;;;21.00;99.90;;;;;;5055658;28;20147;-57
2022/07/27 05:06:08;;;;;;;45.97;24.58;;;21.10;99.90;;;;;;5052707;28;20438;-57
2022/07/27 05:08:34;;;;;;;40.70;23.35;;;21.20;99.90;;;;;;5048204;28;20047;-57
2022/07/27 05:11:01;;;;;;;39.03;22.73;;;21.20;99.90;;;;;;5061076;28;20045;-57
2022/07/27 05:13:27;;;;;;;34.47;19.55;;;21.30;99.90;;;;;;5075395;28;20040;-56
2022/07/27 05:15:53;;;;;;;40.80;23.15;;;21.40;99.90;;;;;;5089221;28;20454;-56
2022/07/27 05:18:19;;;;;;;45.70;22.20;;;21.40;99.90;;;;;;5076661;28;20499;-57
2022/07/27 05:20:45;;;;;;;36.90;21.50;;;21.50;99.90;;;;;;5054260;28;20033;-56
2022/07/27 05:23:11;;;;;;;38.38;23.05;;;21.70;99.90;;;;;;5054164;28;20368;-56
2022/07/27 05:25:39;;;;;;;42.58;22.58;;;21.70;99.90;;;;;;5053463;28;20498;-57
2022/07/27 05:28:05;;;;;;;45.85;26.08;;;21.80;99.90;;;;;;5052844;28;20033;-56
2022/07/27 05:30:31;;;;;;;65.28;34.05;;;21.80;99.90;;;;;;5053948;28;20040;-56
2022/07/27 05:32:57;;;;;;;59.65;31.27;;;21.80;99.90;;;;;;5053989;28;20391;-57
2022/07/27 05:35:23;;;;;;;55.38;30.85;;;21.90;99.90;;;;;;5054178;28;20024;-56
2022/07/27 05:37:49;;;;;;;63.25;33.85;;;22.00;99.90;;;;;;5053982;28;20028;-56
2022/07/27 05:40:15;;;;;;;52.35;28.75;;;22.00;99.90;;;;;;5054309;28;20026;-56
2022/07/27 05:42:42;;;;;;;49.08;29.75;;;22.10;99.90;;;;;;5053980;28;20040;-57
2022/07/27 05:45:10;;;;;;;41.00;25.23;;;22.20;99.90;;;;;;5054099;28;20036;-57
2022/07/27 05:47:36;;;;;;;39.92;24.20;;;22.20;99.90;;;;;;5054128;28;20025;-56
2022/07/27 05:50:02;;;;;;;42.78;22.80;;;22.30;99.90;;;;;;5054022;28;20114;-56
2022/07/27 05:52:28;;;;;;;42.05;21.80;;;22.40;99.90;;;;;;5053577;28;20029;-56
2022/07/27 05:54:54;;;;;;;36.35;23.15;;;22.40;99.90;;;;;;5053826;28;20554;-56
2022/07/27 05:57:20;;;;;;;33.80;20.13;;;22.50;99.90;;;;;;5054086;28;20013;-56
2022/07/27 05:59:46;;;;;;;33.92;21.85;;;22.50;99.90;;;;;;5053794;28;20088;-56
2022/07/27 06:02:12;;;;;;;24.80;17.73;;;22.50;99.90;;;;;;5053343;28;20029;-57
2022/07/27 06:04:38;;;;;;;24.10;18.15;;;22.50;99.90;;;;;;5053957;28;20529;-56
2022/07/27 06:09:49;;;;;;;33.92;22.55;;;22.60;99.90;;;;;;5043115;28;20034;-56
2022/07/27 06:12:15;;;;;;;25.63;18.98;;;22.70;99.90;;;;;;5044783;28;20351;-57
2022/07/27 06:14:40;;;;;;;32.47;22.40;;;22.80;99.90;;;;;;5052426;28;20032;-56
2022/07/27 06:17:06;;;;;;;38.28;24.33;;;22.90;99.90;;;;;;5051568;28;20040;-57
2022/07/27 06:19:32;;;;;;;46.28;29.75;;;22.90;99.90;;;;;;5052941;28;20049;-56
2022/07/27 06:21:58;;;;;;;38.45;24.02;;;22.90;99.90;;;;;;5053537;28;20040;-57
2022/07/27 06:24:24;;;;;;;38.10;23.52;;;23.00;99.90;;;;;;5053431;28;20086;-57
2022/07/27 06:26:50;;;;;;;37.15;22.23;;;23.00;99.90;;;;;;5053667;28;20025;-56
2022/07/27 06:29:16;;;;;;;33.88;24.73;;;23.10;99.90;;;;;;5052986;28;20025;-57
2022/07/27 06:31:42;;;;;;;36.80;22.98;;;23.10;99.90;;;;;;5053445;28;20608;-57
2022/07/27 06:34:08;;;;;;;36.17;24.75;;;23.20;99.90;;;;;;5053052;28;20021;-57
2022/07/27 06:36:33;;;;;;;39.92;24.63;;;23.00;99.90;;;;;;5053634;28;20078;-57
2022/07/27 06:38:59;;;;;;;42.05;25.63;;;22.90;99.90;;;;;;5057145;28;20486;-57
2022/07/27 06:41:25;;;;;;;36.60;23.83;;;23.00;99.90;;;;;;5057040;28;20036;-57
2022/07/27 06:43:51;;;;;;;33.15;23.65;;;23.40;99.90;;;;;;5056426;28;20031;-57
2022/07/27 06:46:17;;;;;;;43.05;24.10;;;23.50;99.90;;;;;;5056583;28;20047;-57
2022/07/27 06:48:46;;;;;;;40.45;25.52;;;23.70;99.90;;;;;;5056899;28;20075;-56
2022/07/27 06:51:12;;;;;;;37.75;24.45;;;24.00;99.90;;;;;;5056757;28;20065;-57
2022/07/27 06:53:38;;;;;;;35.10;23.15;;;23.90;99.90;;;;;;5056752;28;20021;-57
2022/07/27 06:56:04;;;;;;;41.15;23.98;;;24.10;99.90;;;;;;5056944;28;20025;-57
2022/07/27 06:58:31;;;;;;;37.20;22.75;;;24.40;99.90;;;;;;5056291;28;20036;-57
2022/07/27 07:01:00;;;;;;;36.90;23.95;;;24.50;99.90;;;;;;5056622;28;20029;-57
2022/07/27 07:03:29;;;;;;;42.20;22.85;;;24.70;99.90;;;;;;5056852;28;20056;-57
2022/07/27 07:05:56;;;;;;;31.63;21.40;;;25.00;99.90;;;;;;5056282;28;20029;-57
2022/07/27 07:08:22;;;;;;;38.70;23.05;;;25.20;99.90;;;;;;5056308;28;20076;-57
2022/07/27 07:10:48;;;;;;;27.90;18.98;;;25.60;99.90;;;;;;5055710;28;20025;-57
2022/07/27 07:13:14;;;;;;;30.40;20.05;;;25.70;99.90;;;;;;5055224;28;20025;-57
2022/07/27 07:15:42;;;;;;;37.95;20.95;;;25.80;99.90;;;;;;5056323;28;20028;-57
2022/07/27 07:18:09;;;;;;;30.35;19.50;;;26.10;99.90;;;;;;5055910;28;20056;-57
2022/07/27 07:20:35;;;;;;;33.03;19.38;;;26.40;99.30;;;;;;5056133;28;20055;-57
2022/07/27 07:23:01;;;;;;;35.92;20.48;;;26.60;98.70;;;;;;5056922;28;20422;-56
2022/07/27 07:25:28;;;;;;;38.38;20.92;;;26.80;98.20;;;;;;5055653;28;20035;-57
2022/07/27 07:27:55;;;;;;;33.03;19.80;;;26.90;96.60;;;;;;5056054;28;20055;-57
2022/07/27 07:30:21;;;;;;;48.78;21.92;;;27.00;97.00;;;;;;5057033;28;20024;-57
2022/07/27 07:32:48;;;;;;;50.80;20.17;;;27.40;95.90;;;;;;5056022;28;20517;-57
2022/07/27 07:35:15;;;;;;;45.78;24.20;;;27.80;93.70;;;;;;5055756;28;20029;-57
2022/07/27 07:37:41;;;;;;;46.13;26.23;;;28.00;93.30;;;;;;5055693;28;20075;-58
2022/07/27 07:40:09;;;;;;;43.22;24.70;;;28.20;92.70;;;;;;5055388;28;20032;-57
2022/07/27 07:42:53;;;;;;;34.38;22.38;;;28.30;90.90;;;;;;5055350;28;20029;-57
2022/07/27 07:45:20;;;;;;;47.20;26.08;;;28.50;91.30;;;;;;5055363;28;20032;-57
2022/07/27 07:47:47;;;;;;;56.35;25.65;;;28.60;89.50;;;;;;5053830;28;20033;-57
2022/07/27 07:50:13;;;;;;;104.95;33.28;;;28.70;86.40;;;;;;5053689;28;20136;-57
2022/07/27 07:52:39;;;;;;;444.10;98.15;;;28.90;85.90;;;;;;5051199;28;20028;-57
2022/07/27 07:55:06;;;;;;;40.75;23.20;;;29.10;86.00;;;;;;5054719;28;20028;-57
2022/07/27 07:57:32;;;;;;;32.17;20.90;;;28.90;81.50;;;;;;5054033;28;20081;-57
2022/07/27 07:59:58;;;;;;;37.38;23.05;;;29.20;80.00;;;;;;5054168;28;20510;-57
2022/07/27 08:02:24;;;;;;;40.30;24.30;;;29.50;74.50;;;;;;5054124;28;20036;-57
2022/07/27 08:04:53;;;;;;;192.15;46.55;;;29.70;72.90;;;;;;5055145;28;20114;-57
2022/07/27 08:07:22;;;;;;;57.38;30.60;;;29.30;72.80;;;;;;5055091;28;20032;-57
2022/07/27 08:09:48;;;;;;;85.05;32.25;;;29.50;70.80;;;;;;5054661;28;20033;-57
2022/07/27 08:12:14;;;;;;;40.45;28.40;;;29.80;67.00;;;;;;5054465;28;20469;-57
2022/07/27 08:14:39;;;;;;;45.97;31.48;;;29.90;66.40;;;;;;5053930;28;20112;-57
2022/07/27 08:17:05;;;;;;;36.67;25.30;;;30.20;63.40;;;;;;5053843;28;20027;-57
2022/07/27 08:19:31;;;;;;;35.58;25.52;;;30.00;62.90;;;;;;5053969;28;20045;-57
2022/07/27 08:21:57;;;;;;;34.72;23.50;;;29.90;63.50;;;;;;5052807;28;20025;-57
2022/07/27 08:24:23;;;;;;;39.08;24.98;;;29.60;65.90;;;;;;5051873;28;20025;-57
2022/07/27 08:26:49;;;;;;;34.33;23.40;;;29.70;65.70;;;;;;5052049;28;20460;-57
2022/07/27 08:29:15;;;;;;;45.25;26.25;;;30.10;66.20;;;;;;5053738;28;20159;-57
2022/07/27 08:31:41;;;;;;;42.55;26.48;;;30.10;65.30;;;;;;5053407;28;20036;-57
2022/07/27 08:34:07;;;;;;;38.08;25.30;;;30.00;64.30;;;;;;5052058;28;20025;-57
2022/07/27 08:36:32;;;;;;;33.88;23.90;;;30.20;63.10;;;;;;5048756;28;20099;-57
2022/07/27 08:39:03;;;;;;;31.75;21.88;;;30.60;62.60;;;;;;5053435;28;20171;-57
2022/07/27 08:41:29;;;;;;;;;;;31.10;60.20;;;;;;5054176;28;20037;-57
2022/07/27 08:43:58;;;;;;;28.38;21.27;;;31.30;59.90;;;;;;5053830;28;19912;-57
2022/07/27 08:46:26;;;;;;;30.17;22.13;;;31.00;60.20;;;;;;5054518;28;20068;-57
2022/07/27 08:48:52;;;;;;;34.85;21.00;;;31.40;58.10;;;;;;5052706;28;20032;-57
2022/07/27 08:51:19;;;;;;;28.77;20.60;;;31.50;57.40;;;;;;5051641;28;20028;-57
2022/07/27 08:53:46;;;;;;;21.80;17.08;;;32.10;56.40;;;;;;5052943;28;20029;-57
2022/07/27 08:56:12;;;;;;;20.13;15.73;;;32.20;54.90;;;;;;5048053;28;20448;-57
2022/07/27 08:58:38;;;;;;;17.30;14.73;;;32.50;54.30;;;;;;5048178;28;20053;-57
2022/07/27 09:01:03;;;;;;;18.73;15.48;;;32.60;52.10;;;;;;5051531;28;20071;-57
2022/07/27 09:03:29;;;;;;;24.17;16.55;;;32.70;53.60;;;;;;5052218;28;20060;-57
2022/07/27 09:05:57;;;;;;;20.92;17.05;;;33.20;52.20;;;;;;5052827;28;20021;-57
2022/07/27 09:08:26;;;;;;;24.27;17.38;;;33.40;50.20;;;;;;5054154;28;20074;-57
2022/07/27 09:10:54;;;;;;;24.48;16.35;;;33.50;50.60;;;;;;5054060;28;20032;-57
2022/07/27 09:13:26;;;;;;;19.80;16.00;;;33.70;49.80;;;;;;5053639;28;20565;-58
2022/07/27 09:16:04;;;;;;;22.33;17.55;;;34.10;49.00;;;;;;5046031;28;20088;-57
2022/07/27 09:18:36;;;;;;;21.95;16.60;;;34.00;48.10;;;;;;5048835;28;20467;-58
2022/07/27 09:21:18;;;;;;;23.60;15.65;;;33.80;48.90;;;;;;5050277;28;20071;-58
2022/07/27 09:24:05;;;;;;;24.70;13.73;;;33.80;48.50;;;;;;5052479;28;20052;-57
2022/07/27 09:26:31;;;;;;;20.48;13.25;;;33.10;47.40;;;;;;5046101;28;20029;-57
2022/07/27 09:29:00;;;;;;;23.50;13.95;;;32.40;50.20;;;;;;5050486;28;20037;-58
2022/07/27 09:31:27;;;;;;;16.77;13.50;;;32.50;50.30;;;;;;5050533;28;20021;-57
2022/07/27 09:33:57;;;;;;;20.20;13.00;;;33.40;48.90;;;;;;5050722;28;20114;-57
2022/07/27 09:36:26;;;;;;;17.52;13.20;;;33.70;47.10;;;;;;5052049;28;20402;-57
2022/07/27 09:39:01;;;;;;;15.38;12.20;;;33.80;47.30;;;;;;5035072;28;20040;-57
2022/07/27 09:41:40;;;;;;;14.07;11.70;;;33.90;46.50;;;;;;5049228;28;20434;-57
2022/07/27 09:44:06;;;;;;;15.70;11.38;;;33.60;45.50;;;;;;5040557;28;20025;-57
2022/07/27 09:46:37;;;;;;;19.38;14.02;;;34.00;45.90;;;;;;5043751;28;20509;-58
2022/07/27 09:49:05;;;;;;;20.50;11.75;;;34.00;45.50;;;;;;5052056;28;20060;-57
2022/07/27 09:51:43;;;;;;;13.93;10.65;;;34.20;45.10;;;;;;5053223;28;20021;-57
2022/07/27 09:54:10;;;;;;;15.13;10.48;;;33.70;44.10;;;;;;5052866;28;20025;-57
2022/07/27 09:56:36;;;;;;;13.60;9.85;;;34.20;44.70;;;;;;5053081;28;20017;-57
2022/07/27 09:59:03;;;;;;;37.72;14.00;;;34.40;43.30;;;;;;5050867;28;20025;-57
2022/07/27 10:01:33;;;;;;;22.27;12.80;;;33.90;46.00;;;;;;5051798;28;20550;-58
2022/07/27 10:04:05;;;;;;;17.10;11.02;;;33.60;46.20;;;;;;5053653;28;20452;-58
2022/07/27 10:06:33;;;;;;;13.90;10.80;;;33.90;45.30;;;;;;5053018;28;20095;-57
2022/07/27 10:09:00;;;;;;;20.40;11.05;;;34.50;44.00;;;;;;5044503;28;20029;-57
2022/07/27 10:11:27;;;;;;;22.52;11.55;;;34.60;44.20;;;;;;5044219;28;20041;-57
2022/07/27 10:13:55;;;;;;;14.43;10.95;;;34.90;44.00;;;;;;5042370;28;20022;-57
2022/07/27 10:16:27;;;;;;;14.38;10.80;;;34.50;44.50;;;;;;5037557;28;20033;-57
2022/07/27 10:19:01;;;;;;;27.38;11.15;;;34.80;44.40;;;;;;5046115;28;20396;-57
2022/07/27 10:21:28;;;;;;;15.65;11.00;;;35.00;43.40;;;;;;5050941;28;20025;-57
2022/07/27 10:24:17;;;;;;;16.35;10.32;;;33.80;43.30;;;;;;5053213;28;20028;-58
2022/07/27 10:26:44;;;;;;;20.38;11.63;;;33.90;44.60;;;;;;5043730;28;20665;-58
2022/07/27 10:29:13;;;;;;;11.55;8.90;;;33.10;45.60;;;;;;5049229;28;20352;-58
2022/07/27 10:31:54;;;;;;;15.98;10.13;;;33.40;44.40;;;;;;5052510;28;20112;-58
2022/07/27 10:34:39;;;;;;;13.88;9.60;;;33.80;45.20;;;;;;5041802;28;20037;-58
2022/07/27 10:37:11;;;;;;;12.48;8.32;;;34.70;43.60;;;;;;5053749;28;20025;-57
2022/07/27 10:39:49;;;;;;;64.88;13.60;;;34.90;42.80;;;;;;5049783;28;20700;-57
2022/07/27 10:42:23;;;;;;;18.92;10.02;;;35.00;41.70;;;;;;5051598;28;20021;-57
2022/07/27 10:44:55;;;;;;;14.10;6.75;;;34.70;41.90;;;;;;5051014;28;20025;-57
2022/07/27 10:47:36;;;;;;;12.05;6.57;;;34.90;41.90;;;;;;5054241;28;20021;-57
2022/07/27 10:50:14;;;;;;;11.07;7.32;;;33.50;42.20;;;;;;5057279;28;20037;-57
2022/07/27 10:53:04;;;;;;;23.13;7.60;;;33.70;42.40;;;;;;5047392;28;20052;-57
2022/07/27 10:55:30;;;;;;;11.90;6.20;;;33.60;42.30;;;;;;5044049;28;20029;-57
2022/07/27 10:57:57;;;;;;;16.33;7.25;;;33.80;41.20;;;;;;5047969;28;20498;-57
2022/07/27 11:00:48;;;;;;;12.98;7.38;;;33.40;41.60;;;;;;5047255;28;20029;-57
2022/07/27 11:03:25;;;;;;;12.23;7.60;;;33.60;42.40;;;;;;5041739;28;20061;-57
2022/07/27 11:06:06;;;;;;;18.67;6.68;;;33.80;42.10;;;;;;5047581;28;20029;-57
2022/07/27 11:08:43;;;;;;;8.30;6.60;;;33.50;41.10;;;;;;5042203;28;20076;-57
2022/07/27 11:11:14;;;;;;;14.18;6.90;;;33.70;42.70;;;;;;5047980;28;20108;-57
2022/07/27 11:13:42;;;;;;;10.55;6.15;;;33.00;44.30;;;;;;5046992;28;20029;-57
2022/07/27 11:16:14;;;;;;;8.38;5.70;;;33.20;43.30;;;;;;5045882;28;20037;-57
2022/07/27 11:18:50;;;;;;;23.38;7.57;;;33.80;43.10;;;;;;5041230;28;20090;-57
2022/07/27 11:21:23;;;;;;;9.00;6.55;;;34.10;41.40;;;;;;5041477;28;20028;-57
2022/07/27 11:24:01;;;;;;;11.60;6.00;;;33.50;41.90;;;;;;5039062;28;20029;-57
2022/07/27 11:26:30;;;;;;;10.75;7.47;;;33.30;43.10;;;;;;5044637;28;20360;-57
2022/07/27 11:28:56;;;;;;;15.70;7.60;;;33.60;40.90;;;;;;5050014;28;20036;-57
2022/07/27 11:31:22;;;;;;;16.90;8.30;;;33.30;41.40;;;;;;5050159;28;20017;-57
2022/07/27 11:33:56;;;;;;;12.60;8.98;;;32.90;41.80;;;;;;5044929;28;20548;-57
2022/07/27 11:36:43;;;;;;;11.98;8.07;;;33.30;42.30;;;;;;5048298;28;20029;-57
2022/07/27 11:39:11;;;;;;;28.80;11.15;;;34.00;41.80;;;;;;5053600;28;20068;-57
2022/07/27 11:41:37;;;;;;;10.90;9.52;;;33.70;40.20;;;;;;5052372;28;20040;-57
2022/07/27 11:44:10;;;;;;;16.77;10.02;;;32.90;41.40;;;;;;5050747;28;20029;-57
2022/07/27 11:46:41;;;;;;;15.88;10.70;;;32.50;42.10;;;;;;5050075;28;20063;-57
2022/07/27 11:49:25;;;;;;;26.25;9.35;;;32.00;43.60;;;;;;5046744;28;20056;-57
2022/07/27 11:51:52;;;;;;;13.85;6.82;;;32.70;44.10;;;;;;5046476;28;20112;-57
2022/07/27 11:54:24;;;;;;;16.23;11.40;;;32.40;44.00;;;;;;5035850;28;20021;-57
2022/07/27 11:56:56;;;;;;;14.40;10.43;;;32.80;42.80;;;;;;5048116;28;20383;-57
2022/07/27 11:59:25;;;;;;;11.88;9.77;;;33.20;42.60;;;;;;5050597;28;20363;-57
2022/07/27 12:01:57;;;;;;;19.52;9.70;;;33.00;41.40;;;;;;5027982;28;20025;-57
2022/07/27 12:04:29;;;;;;;14.63;10.43;;;33.50;42.50;;;;;;5035329;28;20151;-57
2022/07/27 12:07:00;;;;;;;22.88;11.48;;;33.10;40.40;;;;;;5052952;28;20087;-57
2022/07/27 12:09:26;;;;;;;12.82;10.43;;;33.30;42.00;;;;;;5054027;28;20215;-57
2022/07/27 12:11:56;;;;;;;12.93;8.55;;;33.80;41.20;;;;;;5054826;28;20037;-57
2022/07/27 12:14:28;;;;;;;14.35;8.45;;;34.00;40.80;;;;;;5055170;28;20036;-57
2022/07/27 12:17:10;;;;;;;16.50;7.40;;;33.60;40.40;;;;;;5055172;28;20057;-57
2022/07/27 12:19:36;;;;;;;10.52;7.07;;;34.50;40.10;;;;;;5055218;28;20397;-57
2022/07/27 12:22:02;;;;;;;10.57;7.50;;;35.20;39.20;;;;;;5055154;28;20596;-57
2022/07/27 12:24:47;;;;;;;37.20;10.43;;;35.80;38.40;;;;;;5054570;28;20033;-57
2022/07/27 12:27:14;;;;;;;45.58;11.32;;;36.20;37.70;;;;;;5054904;28;20103;-57
2022/07/27 12:30:18;;;;;;;18.23;7.63;;;35.80;36.70;;;;;;5054866;28;20029;-57
2022/07/27 12:32:45;;;;;;;11.77;6.93;;;35.60;36.50;;;;;;5054921;28;20104;-57
2022/07/27 12:35:23;;;;;;;8.75;6.53;;;35.50;35.50;;;;;;5054683;28;20040;-57